Time;durP1;ratioP1;P1;durP2;ratioP2;P2;SDS_P1;SDS_P2;PMS_P1;PMS_P2;Temp;Humidity;BMP_temperature;BMP_pressure;BME280_temperature;BME280_humidity;BME280_pressure;Samples;Min_cycle;Max_cycle;Signal;HPM_P1;HPM_P2
2021/10/23 00:01:00;;;;;;;7.30;2.90;;;;;;;;;;6030111;29;20200;-54
2021/10/23 00:04:21;;;;;;;7.33;2.57;;;;;;;;;;6034614;29;20285;-53
2021/10/23 00:07:43;;;;;;;6.97;2.07;;;;;;;;;;6037034;29;20237;-54
2021/10/23 00:11:04;;;;;;;6.87;2.30;;;;;;;;;;6045541;29;20819;-50
2021/10/23 00:14:25;;;;;;;7.40;2.87;;;;;;;;;;6042792;29;20234;-51
2021/10/23 00:17:45;;;;;;;11.10;2.60;;;;;;;;;;6039993;29;20282;-52
2021/10/23 00:21:06;;;;;;;15.47;3.57;;;;;;;;;;6039839;29;20218;-55
2021/10/23 00:24:28;;;;;;;11.00;3.00;;;;;;;;;;6030861;29;20230;-52
2021/10/23 00:27:49;;;;;;;8.67;2.50;;;;;;;;;;6040319;29;20812;-53
2021/10/23 00:31:10;;;;;;;7.27;2.30;;;;;;;;;;6046358;29;20210;-53
2021/10/23 00:34:31;;;;;;;10.10;3.27;;;;;;;;;;6042724;29;20237;-54
2021/10/23 00:37:52;;;;;;;8.50;2.50;;;;;;;;;;6038317;29;20225;-53
2021/10/23 00:41:14;;;;;;;7.23;2.40;;;;;;;;;;6044490;29;20202;-54
2021/10/23 00:44:36;;;;;;;5.07;2.03;;;;;;;;;;6037960;29;21166;-54
2021/10/23 00:47:56;;;;;;;5.70;2.07;;;;;;;;;;6039383;29;20244;-52
2021/10/23 00:51:17;;;;;;;9.73;2.60;;;;;;;;;;6039026;29;20548;-52
2021/10/23 00:54:38;;;;;;;7.40;2.10;;;;;;;;;;6042402;29;20234;-54
2021/10/23 00:58:00;;;;;;;5.63;1.90;;;;;;;;;;6033055;29;20249;-54
2021/10/23 01:01:20;;;;;;;7.47;2.57;;;;;;;;;;6024229;29;20206;-53
2021/10/23 01:04:41;;;;;;;6.43;2.10;;;;;;;;;;6042173;29;20241;-54
2021/10/23 01:08:02;;;;;;;5.73;2.33;;;;;;;;;;6038898;29;20237;-53
2021/10/23 01:11:23;;;;;;;6.87;2.17;;;;;;;;;;6032938;29;20233;-53
2021/10/23 01:14:46;;;;;;;6.33;2.17;;;;;;;;;;6028749;29;20235;-52
2021/10/23 01:18:07;;;;;;;7.27;2.13;;;;;;;;;;6032364;29;20620;-56
2021/10/23 01:21:29;;;;;;;5.90;2.20;;;;;;;;;;6035425;29;20213;-52
2021/10/23 01:24:50;;;;;;;15.10;4.23;;;;;;;;;;6038247;29;20234;-55
2021/10/23 01:28:10;;;;;;;10.23;2.97;;;;;;;;;;6044151;29;20245;-53
2021/10/23 01:31:30;;;;;;;10.17;2.50;;;;;;;;;;6045370;29;20226;-50
2021/10/23 01:34:51;;;;;;;10.10;2.80;;;;;;;;;;6017093;29;20234;-55
2021/10/23 01:38:13;;;;;;;11.50;4.17;;;;;;;;;;6016328;29;20710;-51
2021/10/23 01:41:34;;;;;;;10.17;3.03;;;;;;;;;;6019545;29;20199;-51
2021/10/23 01:44:54;;;;;;;5.10;2.13;;;;;;;;;;6015090;29;20798;-55
2021/10/23 01:48:15;;;;;;;11.00;3.50;;;;;;;;;;6030521;29;20245;-56
2021/10/23 01:51:36;;;;;;;9.60;2.30;;;;;;;;;;6038970;29;20210;-51
2021/10/23 01:54:58;;;;;;;7.27;2.60;;;;;;;;;;6040591;29;20230;-54
2021/10/23 01:58:19;;;;;;;10.70;3.97;;;;;;;;;;6048127;29;20237;-53
2021/10/23 02:01:40;;;;;;;9.73;2.87;;;;;;;;;;6042624;29;20214;-53
2021/10/23 02:05:00;;;;;;;5.37;2.20;;;;;;;;;;6039942;29;20229;-52
2021/10/23 02:08:21;;;;;;;8.47;2.83;;;;;;;;;;6028901;29;20241;-55
2021/10/23 02:11:42;;;;;;;9.07;2.27;;;;;;;;;;6015546;29;20219;-55
2021/10/23 02:15:04;;;;;;;9.73;3.23;;;;;;;;;;6008539;29;20227;-53
2021/10/23 02:18:25;;;;;;;11.97;3.90;;;;;;;;;;6038036;29;20537;-55
2021/10/23 02:21:45;;;;;;;6.77;2.77;;;;;;;;;;6030940;29;20210;-51
2021/10/23 02:25:06;;;;;;;6.47;2.80;;;;;;;;;;6054971;29;20211;-53
2021/10/23 02:28:28;;;;;;;9.20;2.63;;;;;;;;;;6049909;29;20950;-51
2021/10/23 02:31:49;;;;;;;10.03;2.37;;;;;;;;;;6038323;29;20481;-55
2021/10/23 02:35:09;;;;;;;4.13;1.60;;;;;;;;;;6050844;29;20238;-55
2021/10/23 02:38:30;;;;;;;5.20;1.73;;;;;;;;;;6028115;29;20258;-55
2021/10/23 02:41:50;;;;;;;6.57;2.17;;;;;;;;;;6034981;29;20305;-53
2021/10/23 02:45:12;;;;;;;8.70;3.33;;;;;;;;;;6053704;29;20456;-53
2021/10/23 02:48:33;;;;;;;9.30;3.67;;;;;;;;;;6044549;29;20241;-56
2021/10/23 02:51:53;;;;;;;8.37;2.53;;;;;;;;;;6031663;29;20194;-50
2021/10/23 02:55:14;;;;;;;6.27;1.90;;;;;;;;;;6054380;29;20242;-50
2021/10/23 02:58:36;;;;;;;11.37;3.53;;;;;;;;;;6045902;29;20595;-51
2021/10/23 03:01:58;;;;;;;9.70;2.03;;;;;;;;;;6037819;29;20556;-57
2021/10/23 03:05:18;;;;;;;5.17;2.80;;;;;;;;;;6053471;29;20604;-51
2021/10/23 03:08:39;;;;;;;8.47;2.80;;;;;;;;;;6042852;29;20237;-54
2021/10/23 03:12:00;;;;;;;8.10;1.97;;;;;;;;;;6033842;29;20226;-55
2021/10/23 03:15:21;;;;;;;6.63;1.87;;;;;;;;;;6050399;29;20624;-52
2021/10/23 03:18:43;;;;;;;6.87;2.43;;;;;;;;;;6028925;29;20241;-56
2021/10/23 03:22:04;;;;;;;11.10;2.13;;;;;;;;;;6006714;29;20764;-53
2021/10/23 03:25:25;;;;;;;5.90;2.20;;;;;;;;;;6052299;29;20222;-53
2021/10/23 03:28:46;;;;;;;6.03;2.37;;;;;;;;;;6032574;29;20233;-55
2021/10/23 03:32:07;;;;;;;6.07;2.33;;;;;;;;;;6008928;29;20331;-54
2021/10/23 03:35:29;;;;;;;5.03;2.20;;;;;;;;;;6037127;29;20218;-55
2021/10/23 03:38:49;;;;;;;8.50;2.30;;;;;;;;;;6017984;29;20238;-53
2021/10/23 03:42:10;;;;;;;5.40;2.20;;;;;;;;;;5995045;29;20242;-54
2021/10/23 03:45:31;;;;;;;9.03;3.10;;;;;;;;;;6007028;29;20203;-53
2021/10/23 03:48:51;;;;;;;8.77;2.83;;;;;;;;;;6027417;29;20593;-54
2021/10/23 03:52:15;;;;;;;10.10;3.77;;;;;;;;;;6015471;29;20265;-53
2021/10/23 03:55:35;;;;;;;7.13;3.17;;;;;;;;;;6039494;29;20234;-49
2021/10/23 03:58:56;;;;;;;6.50;2.10;;;;;;;;;;6018309;29;20636;-54
2021/10/23 04:02:17;;;;;;;8.03;2.00;;;;;;;;;;5999677;29;20233;-51
2021/10/23 04:05:37;;;;;;;13.13;4.03;;;;;;;;;;6027080;29;20281;-56
2021/10/23 04:08:59;;;;;;;7.63;2.57;;;;;;;;;;6014077;29;20241;-55
2021/10/23 04:12:20;;;;;;;6.60;2.47;;;;;;;;;;6007705;29;20241;-55
2021/10/23 04:15:40;;;;;;;7.60;2.67;;;;;;;;;;6042534;29;20222;-53
2021/10/23 04:19:01;;;;;;;5.13;2.60;;;;;;;;;;6022862;29;20249;-53
2021/10/23 04:22:22;;;;;;;6.03;3.63;;;;;;;;;;6003946;29;20237;-52
2021/10/23 04:25:44;;;;;;;10.63;4.27;;;;;;;;;;6037368;29;20605;-55
2021/10/23 04:29:05;;;;;;;11.10;3.13;;;;;;;;;;6037662;29;20237;-55
2021/10/23 04:32:25;;;;;;;9.17;3.17;;;;;;;;;;6024370;29;20324;-54
2021/10/23 04:35:46;;;;;;;7.70;2.40;;;;;;;;;;6013732;29;20211;-53
2021/10/23 04:39:06;;;;;;;9.67;2.33;;;;;;;;;;6013789;29;20230;-53
2021/10/23 04:42:28;;;;;;;10.27;2.80;;;;;;;;;;6004994;29;20261;-50
2021/10/23 04:45:49;;;;;;;7.17;2.80;;;;;;;;;;6016223;29;20601;-49
2021/10/23 04:49:10;;;;;;;6.03;2.83;;;;;;;;;;6010947;29;20492;-52
2021/10/23 04:52:30;;;;;;;9.77;3.43;;;;;;;;;;6004883;29;20236;-52
2021/10/23 04:55:51;;;;;;;9.73;2.87;;;;;;;;;;6039057;29;20226;-54
2021/10/23 04:59:13;;;;;;;6.77;2.23;;;;;;;;;;6039727;29;20235;-55
2021/10/23 05:02:33;;;;;;;8.67;2.60;;;;;;;;;;6025763;29;20269;-54
2021/10/23 05:05:54;;;;;;;13.80;3.17;;;;;;;;;;6027924;29;20329;-55
2021/10/23 05:09:15;;;;;;;7.87;2.43;;;;;;;;;;6022836;29;20253;-55
2021/10/23 05:12:35;;;;;;;5.77;1.67;;;;;;;;;;6019533;29;20245;-53
2021/10/23 05:15:58;;;;;;;15.37;2.70;;;;;;;;;;6020486;29;20598;-54
2021/10/23 05:19:18;;;;;;;14.60;3.60;;;;;;;;;;6019585;29;20262;-53
2021/10/23 05:22:39;;;;;;;5.23;1.80;;;;;;;;;;6005732;29;20352;-56
2021/10/23 05:26:00;;;;;;;8.27;2.63;;;;;;;;;;6033364;29;20682;-54
2021/10/23 05:29:20;;;;;;;7.73;3.13;;;;;;;;;;6019041;29;20239;-56
2021/10/23 05:32:42;;;;;;;6.30;2.47;;;;;;;;;;6024000;29;20234;-54
2021/10/23 05:36:03;;;;;;;6.80;2.23;;;;;;;;;;6047785;29;20214;-52
2021/10/23 05:39:23;;;;;;;10.93;2.87;;;;;;;;;;6046187;29;20229;-49
2021/10/23 05:42:44;;;;;;;9.10;2.03;;;;;;;;;;6039611;29;20233;-53
2021/10/23 05:46:05;;;;;;;16.50;3.87;;;;;;;;;;6044859;29;20301;-51
2021/10/23 05:49:27;;;;;;;6.73;2.97;;;;;;;;;;6044210;29;20238;-50
2021/10/23 05:52:47;;;;;;;5.33;1.93;;;;;;;;;;6036838;29;20241;-52
2021/10/23 05:56:08;;;;;;;11.53;3.03;;;;;;;;;;6023954;29;20305;-54
2021/10/23 05:59:28;;;;;;;7.17;2.20;;;;;;;;;;6029529;29;20624;-54
2021/10/23 06:02:49;;;;;;;10.03;2.80;;;;;;;;;;6026810;29;20240;-55
2021/10/23 06:06:11;;;;;;;12.90;3.17;;;;;;;;;;6049042;29;20581;-54
2021/10/23 06:09:32;;;;;;;6.60;2.87;;;;;;;;;;6055327;29;20348;-54
2021/10/23 06:12:52;;;;;;;8.93;2.33;;;;;;;;;;6046131;29;20237;-53
2021/10/23 06:16:13;;;;;;;4.87;2.53;;;;;;;;;;6052484;29;20238;-55
2021/10/23 06:19:35;;;;;;;10.53;3.23;;;;;;;;;;6028101;29;20605;-55
2021/10/23 06:22:57;;;;;;;7.17;2.67;;;;;;;;;;6031950;29;20233;-51
2021/10/23 06:26:17;;;;;;;8.67;3.10;;;;;;;;;;6049792;29;20210;-52
2021/10/23 06:29:38;;;;;;;10.57;3.33;;;;;;;;;;6049951;29;20233;-53
2021/10/23 06:32:59;;;;;;;6.20;1.97;;;;;;;;;;6030633;29;20345;-53
2021/10/23 06:36:19;;;;;;;7.87;2.97;;;;;;;;;;6023883;29;20203;-49
2021/10/23 06:39:41;;;;;;;7.70;2.63;;;;;;;;;;6047180;29;20269;-54
2021/10/23 06:43:02;;;;;;;8.03;2.23;;;;;;;;;;6044247;29;20610;-49
2021/10/23 06:46:23;;;;;;;7.30;3.20;;;;;;;;;;6045366;29;20589;-54
2021/10/23 06:49:44;;;;;;;7.03;3.10;;;;;;;;;;6044695;29;20234;-53
2021/10/23 06:53:05;;;;;;;12.97;2.40;;;;;;;;;;6043757;29;20583;-54
2021/10/23 06:56:27;;;;;;;10.63;3.30;;;;;;;;;;6047826;29;20696;-50
2021/10/23 06:59:48;;;;;;;7.50;3.63;;;;;;;;;;6037903;29;20214;-55
2021/10/23 07:03:08;;;;;;;11.40;3.07;;;;;;;;;;6043183;29;20623;-55
2021/10/23 07:06:30;;;;;;;14.57;2.97;;;;;;;;;;6042825;29;20198;-52
2021/10/23 07:09:50;;;;;;;9.97;2.70;;;;;;;;;;6041445;29;20265;-52
2021/10/23 07:13:12;;;;;;;11.27;2.63;;;;;;;;;;6039001;29;20256;-53
2021/10/23 07:16:33;;;;;;;7.33;2.70;;;;;;;;;;6043849;29;20246;-50
2021/10/23 07:19:54;;;;;;;7.07;2.80;;;;;;;;;;6037077;29;20214;-54
2021/10/23 07:23:14;;;;;;;5.80;2.60;;;;;;;;;;6038083;29;20246;-53
2021/10/23 07:26:35;;;;;;;9.60;3.33;;;;;;;;;;6040602;29;20245;-52
2021/10/23 07:29:57;;;;;;;8.90;2.57;;;;;;;;;;6040686;29;20222;-54
2021/10/23 07:33:18;;;;;;;6.13;2.83;;;;;;;;;;6043671;29;20840;-48
2021/10/23 07:36:38;;;;;;;8.90;2.00;;;;;;;;;;6034430;29;20206;-54
2021/10/23 07:40:00;;;;;;;5.03;2.93;;;;;;;;;;6033322;29;20226;-53
2021/10/23 07:43:20;;;;;;;5.20;2.00;;;;;;;;;;6022604;29;20226;-52
2021/10/23 07:46:43;;;;;;;12.40;3.43;;;;;;;;;;6012643;29;20574;-53
2021/10/23 07:50:04;;;;;;;6.57;2.63;;;;;;;;;;6016706;29;20947;-53
2021/10/23 07:53:25;;;;;;;9.90;3.10;;;;;;;;;;6024831;29;20344;-49
2021/10/23 07:56:45;;;;;;;6.43;3.00;;;;;;;;;;6033713;29;20206;-53
2021/10/23 08:00:07;;;;;;;11.93;3.63;;;;;;;;;;6035293;29;20203;-54
2021/10/23 08:03:34;;;;;;;6.03;2.87;;;;;;;;;;6037148;29;20234;-53
2021/10/23 08:06:54;;;;;;;8.67;3.17;;;;;;;;;;6035428;29;20234;-52
2021/10/23 08:10:15;;;;;;;7.13;3.00;;;;;;;;;;6056373;29;20309;-49
2021/10/23 08:13:36;;;;;;;5.93;2.47;;;;;;;;;;6033281;29;20270;-50
2021/10/23 08:16:57;;;;;;;5.33;2.57;;;;;;;;;;6011204;29;20238;-55
2021/10/23 08:20:18;;;;;;;5.60;3.17;;;;;;;;;;6055123;29;20289;-53
2021/10/23 08:23:39;;;;;;;11.83;2.53;;;;;;;;;;6031497;29;20234;-51
2021/10/23 08:26:59;;;;;;;8.13;2.53;;;;;;;;;;6012084;29;20578;-49
2021/10/23 08:30:20;;;;;;;4.37;1.97;;;;;;;;;;6050403;29;20230;-51
2021/10/23 08:33:41;;;;;;;9.27;2.07;;;;;;;;;;6017095;29;20624;-53
2021/10/23 08:37:02;;;;;;;11.67;3.57;;;;;;;;;;6016301;29;20640;-55
2021/10/23 08:40:24;;;;;;;5.20;2.20;;;;;;;;;;6047925;29;20210;-54
2021/10/23 08:43:45;;;;;;;8.60;2.60;;;;;;;;;;6049759;29;20520;-54
2021/10/23 08:47:06;;;;;;;11.40;3.30;;;;;;;;;;6032878;29;20245;-55
2021/10/23 08:50:26;;;;;;;5.37;2.07;;;;;;;;;;6032798;29;20381;-53
2021/10/23 08:53:49;;;;;;;6.03;2.50;;;;;;;;;;6036408;29;20233;-55
2021/10/23 08:57:09;;;;;;;7.73;2.17;;;;;;;;;;6035105;29;20261;-52
2021/10/23 09:00:30;;;;;;;6.37;2.40;;;;;;;;;;6052574;29;20199;-53
2021/10/23 09:03:53;;;;;;;5.33;2.20;;;;;;;;;;6047577;29;20960;-53
2021/10/23 09:07:13;;;;;;;10.00;2.40;;;;;;;;;;6030050;29;20242;-54
2021/10/23 09:10:35;;;;;;;14.70;2.50;;;;;;;;;;6026148;29;20218;-54
2021/10/23 09:13:56;;;;;;;7.87;2.27;;;;;;;;;;6039927;29;20288;-55
2021/10/23 09:17:17;;;;;;;7.97;2.17;;;;;;;;;;6039858;29;20249;-55
2021/10/23 09:20:38;;;;;;;5.23;1.80;;;;;;;;;;6050561;29;20458;-53
2021/10/23 09:24:19;;;;;;;7.70;2.87;;;;;;;;;;6047657;29;20236;-53
2021/10/23 09:27:47;;;;;;;7.23;3.10;;;;;;;;;;6042267;29;20232;-52
2021/10/23 09:31:08;;;;;;;4.55;1.77;;;;;;;;;;6052099;29;20233;-51
2021/10/23 09:34:28;;;;;;;13.40;2.87;;;;;;;;;;6040049;29;20515;-56
2021/10/23 09:37:50;;;;;;;5.93;2.17;;;;;;;;;;6041959;29;20323;-55
2021/10/23 09:41:11;;;;;;;9.70;2.30;;;;;;;;;;6044536;29;20202;-56
2021/10/23 09:44:33;;;;;;;4.50;2.10;;;;;;;;;;6025276;29;20742;-56
2021/10/23 09:48:04;;;;;;;6.13;2.35;;;;;;;;;;6016288;29;20685;-55
2021/10/23 09:51:28;;;;;;;4.60;2.08;;;;;;;;;;6032924;29;20245;-51
2021/10/23 09:55:05;;;;;;;5.45;1.80;;;;;;;;;;6004626;29;20230;-56
2021/10/23 09:58:26;;;;;;;5.93;1.80;;;;;;;;;;6002081;29;20270;-55
2021/10/23 10:01:48;;;;;;;6.00;2.53;;;;;;;;;;6001730;29;20199;-55
2021/10/23 10:05:09;;;;;;;6.30;2.58;;;;;;;;;;6058266;29;20198;-55
2021/10/23 10:08:30;;;;;;;4.80;2.15;;;;;;;;;;6035107;29;20335;-54
2021/10/23 10:11:51;;;;;;;4.72;1.85;;;;;;;;;;6026079;29;20318;-52
2021/10/23 10:15:12;;;;;;;7.10;2.05;;;;;;;;;;6050207;29;20202;-56
2021/10/23 10:18:34;;;;;;;5.65;2.42;;;;;;;;;;6044898;29;20230;-54
2021/10/23 10:21:54;;;;;;;5.43;2.55;;;;;;;;;;6033661;29;20269;-51
2021/10/23 10:25:19;;;;;;;6.68;2.55;;;;;;;;;;6014487;29;20589;-55
2021/10/23 10:29:03;;;;;;;5.75;2.25;;;;;;;;;;6019134;29;20303;-53
2021/10/23 10:32:26;;;;;;;3.20;1.70;;;;;;;;;;6031307;29;20241;-54
2021/10/23 10:36:12;;;;;;;6.68;2.00;;;;;;;;;;6039472;29;20218;-53
2021/10/23 10:39:53;;;;;;;5.72;1.75;;;;;;;;;;6020373;29;20242;-54
2021/10/23 10:43:13;;;;;;;8.17;3.23;;;;;;;;;;6024849;29;20343;-55
2021/10/23 10:46:49;;;;;;;6.63;1.80;;;;;;;;;;6037346;29;20616;-51
2021/10/23 10:50:29;;;;;;;3.47;1.75;;;;;;;;;;6036462;29;20234;-52
2021/10/23 10:54:05;;;;;;;5.57;1.60;;;;;;;;;;6035674;29;20248;-54
2021/10/23 10:57:26;;;;;;;7.88;2.13;;;;;;;;;;6025782;29;20232;-55
2021/10/23 11:01:08;;;;;;;8.60;2.63;;;;;;;;;;6051410;29;20206;-50
2021/10/23 11:04:28;;;;;;;5.15;1.92;;;;;;;;;;6041503;29;20321;-51
2021/10/23 11:08:02;;;;;;;4.88;2.42;;;;;;;;;;6033735;29;20278;-55
2021/10/23 11:11:24;;;;;;;7.68;1.73;;;;;;;;;;6022751;29;20238;-53
2021/10/23 11:14:45;;;;;;;3.67;1.60;;;;;;;;;;6029265;29;20309;-55
2021/10/23 11:18:06;;;;;;;7.70;2.30;;;;;;;;;;6025178;29;20614;-52
2021/10/23 11:21:28;;;;;;;6.87;2.30;;;;;;;;;;6026925;29;20368;-55
2021/10/23 11:24:50;;;;;;;8.27;2.50;;;;;;;;;;6044055;29;20234;-52
2021/10/23 11:28:11;;;;;;;5.73;1.87;;;;;;;;;;6028667;29;20337;-55
2021/10/23 11:31:32;;;;;;;5.63;1.97;;;;;;;;;;6021007;29;20219;-54
2021/10/23 11:34:53;;;;;;;5.87;1.80;;;;;;;;;;6047963;29;20226;-56
2021/10/23 11:38:18;;;;;;;4.63;1.93;;;;;;;;;;6047676;29;20245;-56
2021/10/23 11:41:39;;;;;;;6.93;2.40;;;;;;;;;;6050213;29;20194;-55
2021/10/23 11:45:01;;;;;;;6.20;2.33;;;;;;;;;;6045749;29;20516;-54
2021/10/23 11:48:21;;;;;;;5.03;1.73;;;;;;;;;;6036696;29;20253;-53
2021/10/23 11:51:42;;;;;;;8.60;2.42;;;;;;;;;;6021120;29;20226;-56
2021/10/23 11:55:02;;;;;;;4.18;1.42;;;;;;;;;;6043676;29;20226;-58
2021/10/23 11:58:24;;;;;;;2.55;1.42;;;;;;;;;;6043102;29;20504;-54
2021/10/23 12:01:49;;;;;;;8.13;2.30;;;;;;;;;;6032770;29;20187;-54
2021/10/23 12:05:19;;;;;;;4.68;2.10;;;;;;;;;;6045753;29;20206;-52
2021/10/23 12:08:40;;;;;;;3.72;1.60;;;;;;;;;;6039186;29;20512;-53
2021/10/23 12:12:04;;;;;;;4.70;2.47;;;;;;;;;;6039148;29;20218;-55
2021/10/23 12:15:25;;;;;;;4.53;1.60;;;;;;;;;;6050474;29;20202;-55
2021/10/23 12:18:48;;;;;;;6.63;2.23;;;;;;;;;;6034847;29;20237;-55
2021/10/23 12:22:09;;;;;;;8.23;3.03;;;;;;;;;;6011426;29;20241;-53
2021/10/23 12:25:29;;;;;;;5.77;1.93;;;;;;;;;;6022657;29;20203;-53
2021/10/23 12:29:00;;;;;;;4.43;1.70;;;;;;;;;;6041857;29;20237;-53
2021/10/23 12:32:21;;;;;;;3.53;1.80;;;;;;;;;;6042515;29;20237;-55
2021/10/23 12:35:43;;;;;;;4.33;1.87;;;;;;;;;;6042579;29;20215;-55
2021/10/23 12:39:17;;;;;;;6.57;1.57;;;;;;;;;;6031868;29;20231;-55
2021/10/23 12:42:38;;;;;;;5.63;2.47;;;;;;;;;;6026386;29;20248;-55
2021/10/23 12:45:59;;;;;;;6.60;2.03;;;;;;;;;;6047976;29;20202;-53
2021/10/23 12:49:20;;;;;;;5.30;1.80;;;;;;;;;;6038428;29;20676;-52
2021/10/23 12:52:43;;;;;;;2.53;1.63;;;;;;;;;;6040172;29;20240;-54
2021/10/23 12:56:04;;;;;;;5.77;1.43;;;;;;;;;;6051476;29;20206;-51
2021/10/23 12:59:24;;;;;;;4.20;2.23;;;;;;;;;;6044252;29;20238;-57
2021/10/23 13:02:45;;;;;;;7.10;2.20;;;;;;;;;;6031881;29;20245;-54
2021/10/23 13:06:06;;;;;;;4.43;2.70;;;;;;;;;;6029015;29;20203;-56
2021/10/23 13:09:28;;;;;;;4.90;2.13;;;;;;;;;;6047880;29;20238;-54
2021/10/23 13:12:50;;;;;;;4.03;1.90;;;;;;;;;;6031117;29;20810;-56
2021/10/23 13:16:11;;;;;;;6.17;1.67;;;;;;;;;;6026366;29;20262;-55
2021/10/23 13:19:32;;;;;;;7.13;2.27;;;;;;;;;;6009643;29;20275;-54
2021/10/23 13:22:52;;;;;;;8.37;2.43;;;;;;;;;;6017090;29;20237;-53
2021/10/23 13:26:14;;;;;;;6.93;2.63;;;;;;;;;;6022685;29;20596;-55
2021/10/23 13:29:35;;;;;;;5.07;2.30;;;;;;;;;;6024415;29;20234;-56
2021/10/23 13:32:55;;;;;;;6.63;2.50;;;;;;;;;;6024222;29;20234;-53
2021/10/23 13:36:16;;;;;;;4.90;2.13;;;;;;;;;;6049094;29;20317;-56
2021/10/23 13:39:37;;;;;;;8.17;2.43;;;;;;;;;;6024694;29;20246;-52
2021/10/23 13:42:59;;;;;;;5.57;1.67;;;;;;;;;;6021207;29;20233;-52
2021/10/23 13:46:20;;;;;;;5.20;1.60;;;;;;;;;;6051677;29;20340;-56
2021/10/23 13:49:41;;;;;;;5.83;2.10;;;;;;;;;;6050794;29;20240;-56
2021/10/23 13:53:01;;;;;;;2.73;1.73;;;;;;;;;;6045002;29;20237;-51
2021/10/23 13:56:22;;;;;;;3.87;1.57;;;;;;;;;;6040039;29;20202;-54
2021/10/23 13:59:44;;;;;;;5.27;1.47;;;;;;;;;;6029403;29;20329;-53
2021/10/23 14:03:05;;;;;;;6.87;1.93;;;;;;;;;;6013747;29;21904;-51
2021/10/23 14:06:26;;;;;;;6.43;2.20;;;;;;;;;;6027565;29;20202;-53
2021/10/23 14:09:46;;;;;;;3.73;1.33;;;;;;;;;;6015525;29;20944;-55
2021/10/23 14:13:07;;;;;;;5.30;2.80;;;;;;;;;;6022161;29;20259;-56
2021/10/23 14:16:28;;;;;;;5.53;2.37;;;;;;;;;;6022392;29;20261;-57
2021/10/23 14:19:49;;;;;;;11.27;2.20;;;;;;;;;;6045125;29;20229;-54
2021/10/23 14:23:11;;;;;;;4.60;2.27;;;;;;;;;;6051630;29;20706;-55
2021/10/23 14:26:34;;;;;;;4.90;2.03;;;;;;;;;;6050124;29;20809;-57
2021/10/23 14:29:55;;;;;;;4.73;2.00;;;;;;;;;;6047919;29;20238;-56
2021/10/23 14:33:17;;;;;;;2.10;1.77;;;;;;;;;;6049408;29;20241;-56
2021/10/23 14:36:37;;;;;;;4.53;2.10;;;;;;;;;;6050490;29;20490;-55
2021/10/23 14:39:58;;;;;;;4.73;1.70;;;;;;;;;;6050018;29;20226;-57
2021/10/23 14:43:18;;;;;;;7.13;2.27;;;;;;;;;;6048814;29;20233;-57
2021/10/23 14:46:39;;;;;;;7.00;2.47;;;;;;;;;;6048216;29;20203;-56
2021/10/23 14:50:01;;;;;;;4.17;2.13;;;;;;;;;;6045877;29;20605;-59
2021/10/23 14:53:22;;;;;;;4.90;2.50;;;;;;;;;;6035455;29;20246;-57
2021/10/23 14:56:42;;;;;;;3.60;1.47;;;;;;;;;;6026040;29;20206;-54
2021/10/23 15:00:03;;;;;;;5.07;1.47;;;;;;;;;;6050555;29;20261;-53
2021/10/23 15:03:24;;;;;;;2.67;1.53;;;;;;;;;;6047869;29;20237;-55
2021/10/23 15:06:47;;;;;;;3.77;1.37;;;;;;;;;;6038741;29;20206;-51
2021/10/23 15:10:09;;;;;;;5.40;1.40;;;;;;;;;;6020245;29;20206;-56
2021/10/23 15:13:30;;;;;;;6.70;1.37;;;;;;;;;;6038799;29;20237;-57
2021/10/23 15:16:50;;;;;;;2.90;1.50;;;;;;;;;;6036451;29;20329;-53
2021/10/23 15:20:11;;;;;;;6.00;2.20;;;;;;;;;;6055633;29;20207;-55
2021/10/23 15:23:33;;;;;;;2.83;1.50;;;;;;;;;;6031012;29;20624;-56
2021/10/23 15:26:54;;;;;;;5.27;2.47;;;;;;;;;;6032196;29;20241;-55
2021/10/23 15:30:16;;;;;;;7.33;2.97;;;;;;;;;;6029512;29;20859;-54
2021/10/23 15:33:36;;;;;;;5.27;2.17;;;;;;;;;;6035814;29;20271;-53
2021/10/23 15:36:57;;;;;;;6.60;2.57;;;;;;;;;;6030051;29;20214;-53
2021/10/23 15:40:28;;;;;;;4.73;2.60;;;;;;;;;;6052696;29;20596;-53
2021/10/23 15:43:50;;;;;;;7.07;3.13;;;;;;;;;;6051948;29;20315;-56
2021/10/23 15:47:14;;;;;;;6.83;2.20;;;;;;;;;;6034845;29;20229;-54
2021/10/23 15:50:35;;;;;;;6.33;2.30;;;;;;;;;;6038180;29;20206;-55
2021/10/23 15:53:55;;;;;;;7.10;2.73;;;;;;;;;;6042226;29;20419;-55
2021/10/23 15:57:17;;;;;;;5.77;2.60;;;;;;;;;;6035786;29;20242;-55
2021/10/23 16:00:41;;;;;;;5.13;2.63;;;;;;;;;;6044838;29;20218;-55
2021/10/23 16:04:01;;;;;;;3.17;2.17;;;;;;;;;;6051269;29;20237;-56
2021/10/23 16:07:22;;;;;;;5.60;2.57;;;;;;;;;;6025404;29;20233;-57
2021/10/23 16:10:45;;;;;;;5.43;3.43;;;;;;;;;;6040271;29;20210;-53
2021/10/23 16:14:07;;;;;;;7.33;2.77;;;;;;;;;;6013767;29;20648;-51
2021/10/23 16:17:28;;;;;;;5.67;2.33;;;;;;;;;;6006435;29;20233;-54
2021/10/23 16:20:48;;;;;;;6.77;2.60;;;;;;;;;;6029413;29;20545;-54
2021/10/23 16:24:10;;;;;;;7.47;2.30;;;;;;;;;;6013957;29;20258;-55
2021/10/23 16:27:30;;;;;;;4.17;2.13;;;;;;;;;;6010337;29;20340;-56
2021/10/23 16:30:52;;;;;;;5.43;2.83;;;;;;;;;;6051413;29;20198;-53
2021/10/23 16:34:13;;;;;;;5.10;2.87;;;;;;;;;;6025293;29;21205;-54
2021/10/23 16:37:34;;;;;;;4.07;2.40;;;;;;;;;;6017631;29;20233;-56
2021/10/23 16:40:54;;;;;;;7.43;2.83;;;;;;;;;;6048041;29;20553;-55
2021/10/23 16:44:16;;;;;;;7.13;2.97;;;;;;;;;;6310696;23;20245;-48
2021/10/23 16:47:38;;;;;;;6.30;2.60;;;;;;;;;;6072670;28;20232;-53
2021/10/23 16:50:58;;;;;;;5.80;3.10;;;;;;;;;;6090113;29;20220;-52
2021/10/23 16:54:19;;;;;;;5.23;2.63;;;;;;;;;;6078275;29;20264;-54
2021/10/23 16:57:39;;;;;;;5.73;3.23;;;;;;;;;;6080283;29;20664;-56
2021/10/23 17:00:59;;;;;;;7.90;3.07;;;;;;;;;;6088385;29;20209;-54
2021/10/23 17:04:22;;;;;;;8.43;3.63;;;;;;;;;;6062629;29;20240;-56
2021/10/23 17:07:43;;;;;;;13.13;4.57;;;;;;;;;;6076961;29;20224;-55
2021/10/23 17:11:03;;;;;;;229.97;159.97;;;;;;;;;;6087427;29;20205;-52
2021/10/23 17:14:25;;;;;;;829.20;753.10;;;;;;;;;;6072511;29;20327;-56
2021/10/23 17:17:46;;;;;;;139.63;126.80;;;;;;;;;;6079055;29;20236;-55
2021/10/23 17:21:08;;;;;;;16.27;14.60;;;;;;;;;;6093227;29;20216;-55
2021/10/23 17:24:29;;;;;;;8.73;5.37;;;;;;;;;;6087134;29;20617;-56
2021/10/23 17:27:49;;;;;;;8.40;4.03;;;;;;;;;;6086432;29;20550;-54
2021/10/23 17:31:10;;;;;;;7.70;4.03;;;;;;;;;;6098398;29;20208;-52
2021/10/23 17:34:31;;;;;;;6.07;3.13;;;;;;;;;;6083278;29;20942;-54
2021/10/23 17:37:52;;;;;;;7.00;3.83;;;;;;;;;;6084957;29;20236;-54
2021/10/23 17:41:13;;;;;;;10.23;4.03;;;;;;;;;;6091934;29;20209;-55
2021/10/23 17:44:39;;;;;;;9.17;3.70;;;;;;;;;;6078890;29;20244;-53
2021/10/23 17:48:00;;;;;;;11.07;4.77;;;;;;;;;;6084449;29;20233;-56
2021/10/23 17:51:20;;;;;;;4.93;3.80;;;;;;;;;;6094747;29;20737;-55
2021/10/23 17:54:43;;;;;;;8.87;4.83;;;;;;;;;;6089879;29;20232;-52
2021/10/23 17:58:04;;;;;;;9.37;5.00;;;;;;;;;;6083215;29;20717;-55
2021/10/23 18:01:25;;;;;;;7.10;4.57;;;;;;;;;;6092689;29;20213;-55
2021/10/23 18:04:45;;;;;;;11.70;5.60;;;;;;;;;;6079745;29;20232;-55
2021/10/23 18:08:06;;;;;;;9.07;5.80;;;;;;;;;;6082772;29;20231;-55
2021/10/23 18:11:28;;;;;;;10.50;5.80;;;;;;;;;;6091993;29;20902;-56
2021/10/23 18:14:50;;;;;;;10.53;4.77;;;;;;;;;;6090611;29;20324;-56
2021/10/23 18:18:14;;;;;;;7.47;5.23;;;;;;;;;;6085033;29;20237;-53
2021/10/23 18:21:34;;;;;;;6.93;4.77;;;;;;;;;;6094705;29;20209;-56
2021/10/23 18:24:55;;;;;;;8.97;6.00;;;;;;;;;;6090400;29;20311;-55
2021/10/23 18:28:17;;;;;;;10.73;5.70;;;;;;;;;;6077011;29;20779;-53
2021/10/23 18:31:37;;;;;;;9.47;6.13;;;;;;;;;;6096384;29;20832;-52
2021/10/23 18:35:02;;;;;;;7.00;5.40;;;;;;;;;;6097484;29;20221;-55
2021/10/23 18:38:23;;;;;;;10.80;5.63;;;;;;;;;;6094544;29;20241;-56
2021/10/23 18:41:43;;;;;;;8.37;5.47;;;;;;;;;;6094836;29;20213;-51
2021/10/23 18:45:07;;;;;;;10.87;5.63;;;;;;;;;;6097709;29;20225;-54
2021/10/23 18:48:27;;;;;;;11.20;5.57;;;;;;;;;;6088634;29;20238;-53
2021/10/23 18:51:48;;;;;;;10.27;5.40;;;;;;;;;;6088548;29;20204;-55
2021/10/23 18:55:09;;;;;;;6.13;5.07;;;;;;;;;;6098539;29;20610;-55
2021/10/23 18:58:29;;;;;;;9.80;6.03;;;;;;;;;;6090958;29;20220;-56
2021/10/23 19:01:51;;;;;;;8.87;5.93;;;;;;;;;;6089526;29;20216;-56
2021/10/23 19:05:15;;;;;;;8.00;5.93;;;;;;;;;;6098177;29;20238;-54
2021/10/23 19:08:35;;;;;;;10.53;6.83;;;;;;;;;;6082786;29;20236;-54
2021/10/23 19:11:56;;;;;;;8.13;5.93;;;;;;;;;;6087172;29;20931;-54
2021/10/23 19:15:17;;;;;;;10.13;6.47;;;;;;;;;;6094675;29;20315;-52
2021/10/23 19:18:38;;;;;;;9.67;6.97;;;;;;;;;;6090336;29;20244;-55
2021/10/23 19:21:59;;;;;;;12.30;9.10;;;;;;;;;;6086899;29;20204;-54
2021/10/23 19:25:20;;;;;;;10.70;7.30;;;;;;;;;;6095898;29;20192;-53
2021/10/23 19:28:41;;;;;;;8.63;6.97;;;;;;;;;;6087033;29;20241;-54
2021/10/23 19:32:02;;;;;;;9.73;7.33;;;;;;;;;;6096692;29;20192;-53
2021/10/23 19:35:24;;;;;;;11.90;8.33;;;;;;;;;;6095824;29;20465;-54
2021/10/23 19:38:45;;;;;;;15.73;7.80;;;;;;;;;;6084227;29;20553;-54
2021/10/23 19:42:06;;;;;;;12.00;8.17;;;;;;;;;;6081564;29;20241;-54
2021/10/23 19:45:27;;;;;;;10.83;7.73;;;;;;;;;;6096320;29;20611;-52
2021/10/23 19:48:47;;;;;;;12.83;7.93;;;;;;;;;;6081772;29;20555;-53
2021/10/23 19:52:10;;;;;;;19.50;9.43;;;;;;;;;;6083281;29;20233;-51
2021/10/23 19:55:31;;;;;;;14.60;10.90;;;;;;;;;;6089560;29;20694;-53
2021/10/23 19:58:52;;;;;;;11.30;7.67;;;;;;;;;;6079618;29;20241;-51
2021/10/23 20:02:13;;;;;;;10.53;8.67;;;;;;;;;;6108320;29;20205;-55
2021/10/23 20:05:38;;;;;;;8.37;7.30;;;;;;;;;;6093661;29;20802;-52